createdAt,value
2019-02-26T00:01:01.666Z,78.70
2019-02-26T00:03:37.074Z,78.90
2019-02-26T00:06:06.491Z,78.80
2019-02-26T00:08:35.923Z,78.80
2019-02-26T00:11:07.932Z,78.80
2019-02-26T00:13:36.717Z,78.80
2019-02-26T00:16:08.007Z,78.80
2019-02-26T00:18:37.574Z,78.80
2019-02-26T00:21:07.002Z,79.10
2019-02-26T00:23:36.627Z,79.00
2019-02-26T00:26:06.048Z,79.10
2019-02-26T00:28:36.521Z,79.10
2019-02-26T00:31:06.677Z,79.10
2019-02-26T00:33:36.129Z,79.00
2019-02-26T00:36:07.178Z,78.90
2019-02-26T00:38:37.757Z,79.30
2019-02-26T00:41:07.895Z,79.30
2019-02-26T00:43:37.352Z,79.40
2019-02-26T00:46:08.473Z,79.30
2019-02-26T00:48:38.847Z,79.20
2019-02-26T00:51:09.086Z,79.10
2019-02-26T00:53:38.516Z,79.40
2019-02-26T00:56:10.284Z,79.60
2019-02-26T00:58:41.084Z,80.00
2019-02-26T01:01:12.399Z,80.50
2019-02-26T01:03:43.078Z,81.10
2019-02-26T01:06:12.626Z,82.30
2019-02-26T01:08:43.083Z,81.50
2019-02-26T01:11:13.220Z,81.30
2019-02-26T01:13:42.701Z,81.20
2019-02-26T01:16:12.100Z,81.30
2019-02-26T01:18:42.247Z,81.00
2019-02-26T01:21:12.707Z,80.70
2019-02-26T01:23:42.154Z,80.40
2019-02-26T01:26:12.148Z,80.00
2019-02-26T01:28:44.080Z,79.90
2019-02-26T01:31:13.198Z,79.90
2019-02-26T01:33:42.645Z,79.90
2019-02-26T01:36:13.871Z,79.80
2019-02-26T01:38:45.878Z,79.80
2019-02-26T01:41:15.560Z,79.90
2019-02-26T01:43:45.572Z,79.90
2019-02-26T01:46:16.962Z,80.00
2019-02-26T01:48:46.187Z,80.00
2019-02-26T01:51:17.175Z,80.10
2019-02-26T01:53:49.012Z,80.00
2019-02-26T01:56:20.021Z,79.70
2019-02-26T01:58:56.342Z,79.60
2019-02-26T02:01:22.020Z,79.50
2019-02-26T02:03:53.841Z,79.50
2019-02-26T02:06:22.607Z,79.40
2019-02-26T02:08:53.578Z,79.60
2019-02-26T02:11:23.876Z,79.70
2019-02-26T02:13:54.416Z,79.80
2019-02-26T02:16:24.936Z,79.90
2019-02-26T02:18:55.864Z,80.00
2019-02-26T02:21:28.399Z,80.20
2019-02-26T02:24:17.459Z,80.00
2019-02-26T02:27:07.249Z,79.90
2019-02-26T02:29:57.648Z,79.80
2019-02-26T02:32:48.198Z,79.90
2019-02-26T02:35:37.127Z,79.70
2019-02-26T02:38:25.919Z,79.70
2019-02-26T02:41:14.709Z,79.70
2019-02-26T02:44:03.491Z,79.60
2019-02-26T02:46:52.278Z,79.70
2019-02-26T02:49:42.458Z,79.60
2019-02-26T02:52:33.097Z,80.10
2019-02-26T02:55:22.077Z,80.20
2019-02-26T02:58:13.071Z,80.50
2019-02-26T03:01:01.342Z,80.60
2019-02-26T03:03:50.607Z,80.30
2019-02-26T03:06:40.708Z,80.20
2019-02-26T03:09:22.090Z,80.00
2019-02-26T03:12:10.856Z,79.90
2019-02-26T03:15:02.105Z,80.00
2019-02-26T03:17:50.129Z,79.90
2019-02-26T03:20:40.255Z,80.00
2019-02-26T03:23:30.845Z,80.00
2019-02-26T03:26:20.536Z,80.10
2019-02-26T03:29:10.449Z,80.20
2019-02-26T03:31:59.232Z,80.20
2019-02-26T03:34:48.014Z,80.20
2019-02-26T03:37:36.772Z,80.20
2019-02-26T03:40:27.292Z,80.20
2019-02-26T03:43:16.367Z,80.10
2019-02-26T03:46:06.581Z,80.30
2019-02-26T03:48:55.716Z,80.10
2019-02-26T03:51:25.638Z,80.30
2019-02-26T03:53:55.543Z,80.30
2019-02-26T03:56:25.458Z,80.40
2019-02-26T03:58:57.258Z,80.40
2019-02-26T04:01:26.163Z,80.40
2019-02-26T04:03:57.207Z,80.50
2019-02-26T04:06:27.046Z,80.70
2019-02-26T04:08:56.489Z,80.40
2019-02-26T04:11:27.739Z,80.40
2019-02-26T04:13:57.145Z,80.40
2019-02-26T04:16:26.620Z,80.40
2019-02-26T04:18:56.753Z,80.40
2019-02-26T04:21:30.942Z,80.40
2019-02-26T04:24:01.113Z,80.50
2019-02-26T04:26:51.139Z,81.00
2019-02-26T04:29:25.621Z,80.40
2019-02-26T04:32:12.141Z,80.40
2019-02-26T04:35:02.881Z,80.30
2019-02-26T04:37:39.927Z,80.40
2019-02-26T04:40:32.966Z,80.30
2019-02-26T04:43:38.758Z,80.60
2019-02-26T04:46:31.668Z,80.60
2019-02-26T04:49:01.828Z,80.70
2019-02-26T04:51:31.502Z,80.60
2019-02-26T04:54:02.134Z,80.50
2019-02-26T04:56:35.990Z,80.30
2019-02-26T04:59:04.385Z,80.10
2019-02-26T05:01:34.805Z,80.30
2019-02-26T05:04:04.385Z,80.30
2019-02-26T05:06:33.910Z,80.30
2019-02-26T05:09:05.703Z,80.10
2019-02-26T05:11:40.342Z,80.10
2019-02-26T05:14:09.022Z,80.20
2019-02-26T05:16:40.338Z,80.20
2019-02-26T05:19:10.684Z,80.40
2019-02-26T05:21:40.915Z,80.40
2019-02-26T05:24:14.561Z,80.30
2019-02-26T05:26:41.710Z,80.40
2019-02-26T05:29:12.851Z,80.60
2019-02-26T05:31:43.168Z,80.40
2019-02-26T05:34:15.184Z,80.30
2019-02-26T05:36:46.091Z,80.40
2019-02-26T05:39:20.343Z,80.60
2019-02-26T05:41:52.333Z,80.70
2019-02-26T05:44:19.806Z,80.70
2019-02-26T05:46:50.789Z,80.70
2019-02-26T05:49:20.442Z,80.70
2019-02-26T05:51:49.892Z,80.80
2019-02-26T05:54:21.596Z,81.00
2019-02-26T05:56:50.568Z,81.10
2019-02-26T05:59:21.697Z,81.20
2019-02-26T06:01:54.724Z,81.30
2019-02-26T06:04:22.674Z,81.30
2019-02-26T06:06:55.524Z,81.20
2019-02-26T06:09:26.134Z,82.40
2019-02-26T06:11:54.707Z,81.40
2019-02-26T06:14:25.544Z,81.10
2019-02-26T06:16:55.895Z,80.80
2019-02-26T06:19:45.209Z,80.80
2019-02-26T06:22:17.539Z,81.10
2019-02-26T06:24:46.401Z,80.80
2019-02-26T06:27:18.803Z,80.90
2019-02-26T06:29:47.108Z,80.80
2019-02-26T06:32:17.921Z,81.00
2019-02-26T06:34:47.395Z,80.80
2019-02-26T06:37:23.757Z,80.60
2019-02-26T06:39:55.618Z,80.50
2019-02-26T06:42:24.540Z,80.40
2019-02-26T06:44:53.979Z,80.50
2019-02-26T06:47:26.005Z,80.40
2019-02-26T06:49:54.683Z,80.50
2019-02-26T06:52:24.235Z,80.40
2019-02-26T06:54:57.271Z,80.30
2019-02-26T06:57:24.940Z,80.40
2019-02-26T06:59:56.296Z,80.20
2019-02-26T07:02:28.309Z,80.00
2019-02-26T07:04:56.827Z,79.60
2019-02-26T07:07:26.291Z,79.40
2019-02-26T07:10:18.329Z,78.70
2019-02-26T07:12:50.069Z,78.30
2019-02-26T07:15:17.890Z,77.90
2019-02-26T07:18:09.113Z,77.30
2019-02-26T07:20:58.208Z,76.80
2019-02-26T07:23:47.668Z,75.80
2019-02-26T07:29:35.132Z,73.50
2019-02-26T07:32:22.174Z,73.00
2019-02-26T07:35:14.404Z,73.00
2019-02-26T07:38:03.618Z,73.90
2019-02-26T07:40:54.309Z,71.60
2019-02-26T07:43:44.629Z,70.10
2019-02-26T07:46:36.323Z,70.40
2019-02-26T07:49:07.406Z,70.30
2019-02-26T07:51:38.594Z,70.50
2019-02-26T07:54:08.255Z,70.40
2019-02-26T07:56:37.691Z,70.80
2019-02-26T07:59:09.826Z,71.20
2019-02-26T08:01:39.971Z,71.90
2019-02-26T08:04:11.615Z,72.00
2019-02-26T08:06:40.732Z,73.50
2019-02-26T08:09:13.562Z,73.70
2019-02-26T08:11:43.817Z,71.80
2019-02-26T08:14:14.347Z,70.80
2019-02-26T08:16:43.869Z,69.10
2019-02-26T08:19:13.310Z,66.40
2019-02-26T08:21:42.761Z,62.60
2019-02-26T08:24:13.163Z,59.90
2019-02-26T08:26:45.198Z,57.60
2019-02-26T08:29:14.625Z,56.00
2019-02-26T08:31:46.735Z,54.50
2019-02-26T08:34:15.836Z,53.10
2019-02-26T08:36:46.818Z,54.90
2019-02-26T08:39:16.397Z,53.10
2019-02-26T08:42:07.641Z,51.70
2019-02-26T08:44:37.081Z,50.40
2019-02-26T08:47:11.154Z,49.60
2019-02-26T08:49:38.408Z,49.20
2019-02-26T08:52:08.949Z,48.90
2019-02-26T08:54:38.411Z,49.90
2019-02-26T08:57:07.847Z,49.00
2019-02-26T08:59:37.274Z,47.70
2019-02-26T09:02:06.724Z,46.40
2019-02-26T09:04:38.347Z,46.60
2019-02-26T09:07:07.343Z,46.00
2019-02-26T09:09:36.769Z,45.20
2019-02-26T09:12:06.231Z,44.20
2019-02-26T09:14:37.635Z,44.00
2019-02-26T09:17:06.847Z,43.90
2019-02-26T09:19:38.054Z,43.10
2019-02-26T09:22:09.704Z,43.20
2019-02-26T09:24:38.624Z,43.70
2019-02-26T09:27:08.076Z,44.00
2019-02-26T09:29:39.292Z,43.50
2019-02-26T09:32:09.300Z,43.50
2019-02-26T09:34:40.036Z,43.80
2019-02-26T09:37:09.494Z,44.10
2019-02-26T09:39:39.188Z,43.70
2019-02-26T09:42:09.306Z,43.20
2019-02-26T09:44:38.893Z,44.50
2019-02-26T09:47:08.379Z,42.60
2019-02-26T09:49:37.792Z,42.10
2019-02-26T09:52:07.242Z,40.40
2019-02-26T09:54:40.331Z,40.20
2019-02-26T09:57:07.831Z,40.10
2019-02-26T09:59:38.525Z,41.40
2019-02-26T10:02:08.095Z,40.60
2019-02-26T10:04:37.552Z,40.00
2019-02-26T10:07:09.432Z,39.50
2019-02-26T10:09:40.716Z,39.60
2019-02-26T10:12:12.292Z,39.40
2019-02-26T10:14:40.497Z,39.60
2019-02-26T10:17:12.273Z,39.00
2019-02-26T10:19:43.020Z,38.60
2019-02-26T10:22:13.600Z,39.20
2019-02-26T10:24:43.343Z,40.30
2019-02-26T10:27:14.589Z,38.70
2019-02-26T10:29:45.031Z,37.90
2019-02-26T10:32:15.187Z,37.40
2019-02-26T10:34:44.640Z,37.10
2019-02-26T10:37:14.063Z,37.10
2019-02-26T10:39:44.488Z,38.40
2019-02-26T10:42:14.685Z,38.70
2019-02-26T10:44:44.128Z,38.00
2019-02-26T10:47:13.555Z,37.40
2019-02-26T10:49:44.537Z,37.30
2019-02-26T10:52:16.921Z,37.00
2019-02-26T10:54:46.632Z,37.00
2019-02-26T10:57:16.172Z,36.70
2019-02-26T10:59:45.722Z,35.90
2019-02-26T11:02:17.842Z,36.50
2019-02-26T11:04:49.252Z,36.80
2019-02-26T11:07:17.747Z,37.20
2019-02-26T11:09:49.990Z,36.70
2019-02-26T11:12:20.086Z,37.90
2019-02-26T11:14:49.526Z,37.30
2019-02-26T11:17:20.860Z,36.80
2019-02-26T11:19:50.142Z,37.30
2019-02-26T11:22:21.358Z,36.10
2019-02-26T11:24:53.284Z,35.90
2019-02-26T11:27:21.910Z,36.60
2019-02-26T11:29:52.056Z,36.60
2019-02-26T11:32:22.531Z,37.10
2019-02-26T11:34:52.725Z,34.00
2019-02-26T11:37:24.851Z,35.20
2019-02-26T11:39:55.190Z,34.90
2019-02-26T11:42:26.236Z,34.70
2019-02-26T11:44:56.661Z,35.40
2019-02-26T11:47:26.109Z,34.50
2019-02-26T11:49:55.552Z,35.20
2019-02-26T11:52:24.985Z,36.40
2019-02-26T11:54:56.295Z,37.40
2019-02-26T11:57:25.597Z,36.30
2019-02-26T11:59:57.045Z,37.20
2019-02-26T12:02:31.441Z,37.70
2019-02-26T12:04:59.877Z,36.10
2019-02-26T12:07:29.777Z,36.20
2019-02-26T12:10:04.659Z,36.70
2019-02-26T12:12:33.188Z,36.20
2019-02-26T12:15:04.353Z,35.20
2019-02-26T12:17:34.930Z,36.10
2019-02-26T12:20:06.546Z,35.90
2019-02-26T12:22:35.984Z,36.00
2019-02-26T12:25:11.089Z,36.80
2019-02-26T12:27:41.375Z,34.60
2019-02-26T12:30:18.016Z,33.20
2019-02-26T12:32:49.366Z,33.10
2019-02-26T12:35:18.357Z,32.60
2019-02-26T12:37:50.153Z,29.40
2019-02-26T12:40:22.234Z,29.80
2019-02-26T12:42:50.950Z,30.80
2019-02-26T12:45:22.297Z,32.30
2019-02-26T12:47:54.910Z,32.20
2019-02-26T12:50:27.253Z,31.50
2019-02-26T12:52:57.199Z,32.20
2019-02-26T12:55:29.692Z,31.70
2019-02-26T12:57:59.488Z,32.80
2019-02-26T13:00:29.110Z,33.20
2019-02-26T13:02:58.529Z,31.20
2019-02-26T13:05:28.015Z,32.70
2019-02-26T13:07:57.411Z,32.90
2019-02-26T13:10:28.296Z,33.00
2019-02-26T13:13:00.260Z,33.20
2019-02-26T13:15:28.906Z,32.90
2019-02-26T13:17:58.354Z,33.40
2019-02-26T13:20:28.806Z,33.50
2019-02-26T13:23:16.327Z,34.20
2019-02-26T13:25:29.428Z,34.40
2019-02-26T13:27:58.856Z,35.30
2019-02-26T13:30:29.041Z,34.40
2019-02-26T13:33:00.981Z,35.00
2019-02-26T13:35:29.738Z,36.20
2019-02-26T13:38:02.444Z,35.60
2019-02-26T13:40:38.307Z,35.20
2019-02-26T13:45:33.868Z,35.10
2019-02-26T13:48:22.708Z,34.80
2019-02-26T13:51:11.518Z,35.10
2019-02-26T13:53:53.113Z,36.00
2019-02-26T13:56:41.935Z,36.40
2019-02-26T13:59:30.700Z,36.20
2019-02-26T14:02:00.151Z,37.10
2019-02-26T14:04:30.456Z,37.30
2019-02-26T14:06:59.900Z,37.80
2019-02-26T14:09:29.329Z,38.00
2019-02-26T14:11:58.793Z,37.60
2019-02-26T14:14:28.510Z,37.70
2019-02-26T14:16:57.954Z,37.80
2019-02-26T14:19:27.397Z,37.10
2019-02-26T14:21:56.847Z,37.10
2019-02-26T14:24:26.293Z,37.50
2019-02-26T14:26:55.749Z,37.00
2019-02-26T14:29:25.189Z,37.40
2019-02-26T14:31:54.647Z,39.60
2019-02-26T14:34:24.089Z,39.20
2019-02-26T14:36:53.901Z,38.60
2019-02-26T14:39:24.771Z,39.00
2019-02-26T14:41:54.237Z,37.80
2019-02-26T14:44:23.711Z,38.30
2019-02-26T14:46:53.190Z,38.10
2019-02-26T14:49:24.216Z,38.20
2019-02-26T14:51:53.633Z,37.90
2019-02-26T14:54:23.064Z,39.30
2019-02-26T14:56:52.527Z,37.50
2019-02-26T14:59:21.981Z,38.60
2019-02-26T15:01:51.442Z,39.30
2019-02-26T15:04:20.874Z,39.70
2019-02-26T15:06:50.327Z,39.20
2019-02-26T15:09:19.768Z,39.50
2019-02-26T15:11:49.490Z,40.60
2019-02-26T15:14:18.947Z,40.60
2019-02-26T15:16:48.388Z,41.30
2019-02-26T15:19:17.826Z,42.10
2019-02-26T15:21:47.294Z,42.50
2019-02-26T15:24:16.738Z,43.10
2019-02-26T15:26:46.194Z,44.10
2019-02-26T15:29:15.625Z,45.40
2019-02-26T15:31:45.078Z,45.70
2019-02-26T15:34:14.520Z,46.20
2019-02-26T15:36:43.975Z,47.10
2019-02-26T15:39:13.422Z,47.20
2019-02-26T15:41:42.952Z,46.60
2019-02-26T15:44:12.399Z,46.90
2019-02-26T15:46:42.174Z,47.70
2019-02-26T15:49:11.567Z,48.10
2019-02-26T15:51:41.064Z,48.80
2019-02-26T15:54:10.477Z,48.50
2019-02-26T15:56:40.106Z,48.10
2019-02-26T15:59:09.548Z,47.90
2019-02-26T16:01:39.004Z,48.10
2019-02-26T16:04:08.445Z,47.80
2019-02-26T16:06:37.900Z,47.60
2019-02-26T16:09:07.903Z,47.70
2019-02-26T16:11:37.373Z,47.90
2019-02-26T16:14:06.814Z,48.10
2019-02-26T16:16:36.314Z,48.60
2019-02-26T16:19:05.731Z,48.50
2019-02-26T16:21:36.943Z,48.90
2019-02-26T16:24:06.375Z,49.20
2019-02-26T16:26:35.842Z,49.30
2019-02-26T16:29:05.275Z,49.70
2019-02-26T16:31:34.740Z,50.00
2019-02-26T16:34:04.421Z,49.80
2019-02-26T16:36:33.876Z,50.50
2019-02-26T16:39:04.085Z,50.70
2019-02-26T16:41:35.660Z,50.40
2019-02-26T16:44:05.058Z,51.20
2019-02-26T16:46:34.526Z,51.00
2019-02-26T16:49:03.953Z,51.00
2019-02-26T16:51:33.409Z,50.80
2019-02-26T16:54:04.729Z,51.00
2019-02-26T16:56:34.038Z,52.10
2019-02-26T16:59:07.378Z,51.30
2019-02-26T17:01:34.659Z,51.60
2019-02-26T17:04:05.600Z,51.60
2019-02-26T17:06:35.329Z,51.50
2019-02-26T17:09:06.779Z,51.40
2019-02-26T17:11:36.259Z,51.50
2019-02-26T17:14:06.037Z,51.60
2019-02-26T17:16:35.519Z,51.90
2019-02-26T17:19:04.957Z,51.90
2019-02-26T17:21:34.679Z,52.00
2019-02-26T17:24:04.292Z,52.00
2019-02-26T17:26:33.960Z,51.70
2019-02-26T17:29:03.472Z,51.70
2019-02-26T17:31:33.002Z,51.70
2019-02-26T17:34:02.422Z,51.80
2019-02-26T17:36:32.630Z,51.90
2019-02-26T17:39:03.208Z,52.20
2019-02-26T17:41:32.671Z,52.00
2019-02-26T17:44:02.255Z,52.10
2019-02-26T17:46:31.663Z,51.90
2019-02-26T17:49:02.945Z,53.00
2019-02-26T17:51:33.194Z,52.50
2019-02-26T17:54:03.989Z,52.80
2019-02-26T17:56:33.842Z,53.20
2019-02-26T17:59:03.295Z,53.40
2019-02-26T18:01:32.768Z,53.80
2019-02-26T18:04:02.214Z,53.90
2019-02-26T18:06:31.748Z,54.40
2019-02-26T18:09:01.166Z,54.80
2019-02-26T18:11:30.630Z,54.80
2019-02-26T18:14:00.314Z,54.80
2019-02-26T18:16:31.734Z,55.40
2019-02-26T18:19:01.532Z,55.40
2019-02-26T18:21:31.007Z,55.80
2019-02-26T18:24:00.447Z,55.70
2019-02-26T18:26:29.920Z,56.10
2019-02-26T18:28:59.391Z,57.00
2019-02-26T18:31:31.009Z,56.40
2019-02-26T18:34:00.062Z,56.60
2019-02-26T18:36:29.564Z,57.20
2019-02-26T18:38:59.001Z,57.30
2019-02-26T18:41:30.409Z,57.30
2019-02-26T18:44:01.255Z,57.90
2019-02-26T18:46:33.349Z,57.80
2019-02-26T18:49:01.880Z,58.00
2019-02-26T18:51:33.638Z,57.80
2019-02-26T18:54:02.510Z,59.80
2019-02-26T18:56:31.968Z,60.60
2019-02-26T18:59:01.401Z,60.70
2019-02-26T19:01:31.449Z,58.80
2019-02-26T19:04:01.084Z,58.40
2019-02-26T19:06:30.591Z,58.40
2019-02-26T19:09:00.041Z,58.50
2019-02-26T19:11:29.516Z,58.80
2019-02-26T19:13:58.951Z,58.90
2019-02-26T19:16:28.393Z,58.50
2019-02-26T19:18:57.850Z,58.80
2019-02-26T19:21:27.317Z,59.20
2019-02-26T19:23:56.753Z,58.80
2019-02-26T19:26:27.835Z,58.50
2019-02-26T19:28:59.037Z,58.80
2019-02-26T19:31:28.546Z,58.70
2019-02-26T19:33:58.005Z,59.10
2019-02-26T19:36:27.466Z,59.30
2019-02-26T19:39:00.501Z,59.30
2019-02-26T19:41:28.112Z,59.70
2019-02-26T19:43:59.999Z,59.50
2019-02-26T19:46:28.742Z,59.70
2019-02-26T19:48:58.235Z,59.60
2019-02-26T19:51:27.722Z,59.70
2019-02-26T19:53:57.190Z,59.90
2019-02-26T19:56:26.667Z,60.90
2019-02-26T19:58:56.119Z,60.40
2019-02-26T20:01:26.459Z,60.40
2019-02-26T20:03:55.990Z,61.00
2019-02-26T20:06:26.915Z,60.80
2019-02-26T20:08:56.533Z,61.00
2019-02-26T20:11:26.008Z,60.00
2019-02-26T20:14:04.345Z,60.80
2019-02-26T20:16:27.876Z,61.00
2019-02-26T20:18:59.162Z,61.20
2019-02-26T20:21:28.914Z,61.10
2019-02-26T20:23:58.401Z,62.00
2019-02-26T20:26:27.821Z,62.10
2019-02-26T20:28:57.314Z,62.00
2019-02-26T20:31:28.821Z,62.50
2019-02-26T20:33:57.947Z,63.30
2019-02-26T20:36:27.560Z,62.80
2019-02-26T20:38:57.990Z,62.90
2019-02-26T20:41:27.450Z,63.10
2019-02-26T20:44:16.248Z,63.60
2019-02-26T20:47:05.056Z,63.50
2019-02-26T20:49:53.857Z,63.20
2019-02-26T20:52:42.712Z,62.50
2019-02-26T20:55:33.720Z,62.00
2019-02-26T20:58:15.955Z,61.30
2019-02-26T21:01:04.726Z,61.30
2019-02-26T21:03:53.525Z,61.20
2019-02-26T21:06:42.327Z,61.20
2019-02-26T21:09:31.108Z,61.10
2019-02-26T21:12:19.885Z,61.40
2019-02-26T21:15:29.611Z,61.20
2019-02-26T21:18:18.417Z,61.00
2019-02-26T21:21:07.271Z,61.30
2019-02-26T21:23:56.064Z,61.10
2019-02-26T21:26:44.531Z,61.20
2019-02-26T21:29:33.412Z,61.60
2019-02-26T21:35:29.939Z,61.20
2019-02-26T21:38:18.761Z,61.20
2019-02-26T21:44:15.317Z,60.90
2019-02-26T21:47:04.149Z,61.10
2019-02-26T21:49:52.938Z,60.90
2019-02-26T21:56:10.194Z,61.20
2019-02-26T21:58:52.153Z,61.10
2019-02-26T22:01:41.465Z,61.20
2019-02-26T22:04:31.973Z,61.20
2019-02-26T22:07:21.959Z,61.20
2019-02-26T22:10:30.067Z,61.30
2019-02-26T22:16:26.591Z,61.40
2019-02-26T22:19:15.372Z,61.70
2019-02-26T22:22:04.174Z,61.70
2019-02-26T22:27:47.189Z,61.90
2019-02-26T22:30:35.995Z,61.60
2019-02-26T22:33:24.766Z,61.70
2019-02-26T22:36:13.548Z,61.80
2019-02-26T22:39:02.341Z,61.70
2019-02-26T22:41:51.223Z,61.80
2019-02-26T22:44:39.999Z,61.80
2019-02-26T22:47:28.772Z,61.70
2019-02-26T22:50:18.124Z,61.90
2019-02-26T22:53:06.917Z,61.90
2019-02-26T22:55:49.842Z,62.00
2019-02-26T22:58:39.133Z,62.00
2019-02-26T23:04:43.171Z,61.50
2019-02-26T23:10:39.694Z,61.60
2019-02-26T23:13:31.655Z,61.60
2019-02-26T23:22:09.408Z,61.80
2019-02-26T23:25:00.698Z,62.30
2019-02-26T23:27:49.334Z,62.10
2019-02-26T23:33:54.323Z,62.50
2019-02-26T23:36:43.114Z,62.70
2019-02-26T23:39:31.887Z,62.90
2019-02-26T23:42:20.675Z,63.10
2019-02-26T23:45:30.392Z,63.10
2019-02-26T23:48:19.165Z,63.40
2019-02-26T23:51:07.985Z,62.80
2019-02-26T23:53:56.762Z,62.90
2019-02-26T23:56:38.716Z,63.00
2019-02-26T23:59:27.496Z,62.80
